sensor_id;sensor_type;location;lat;lon;timestamp;temperature;humidity
35111;DHT22;21290;50.158;8.658;2024-01-25T00:00:05;8.90;99.90
35111;DHT22;21290;50.158;8.658;2024-01-25T00:02:32;8.90;99.90
35111;DHT22;21290;50.158;8.658;2024-01-25T00:04:59;9.00;99.90
35111;DHT22;21290;50.158;8.658;2024-01-25T00:07:26;9.00;99.90
35111;DHT22;21290;50.158;8.658;2024-01-25T00:09:52;9.00;99.90
35111;DHT22;21290;50.158;8.658;2024-01-25T00:12:19;9.00;99.90
35111;DHT22;21290;50.158;8.658;2024-01-25T00:14:46;9.00;99.90
35111;DHT22;21290;50.158;8.658;2024-01-25T00:17:12;9.00;99.90
35111;DHT22;21290;50.158;8.658;2024-01-25T00:19:39;9.00;99.90
35111;DHT22;21290;50.158;8.658;2024-01-25T00:22:07;9.00;99.90
35111;DHT22;21290;50.158;8.658;2024-01-25T00:24:34;9.00;99.90
35111;DHT22;21290;50.158;8.658;2024-01-25T00:27:01;9.00;99.90
35111;DHT22;21290;50.158;8.658;2024-01-25T00:29:27;9.00;99.90
35111;DHT22;21290;50.158;8.658;2024-01-25T00:31:54;9.00;99.90
35111;DHT22;21290;50.158;8.658;2024-01-25T00:34:21;8.90;99.90
35111;DHT22;21290;50.158;8.658;2024-01-25T00:36:48;8.90;99.90
35111;DHT22;21290;50.158;8.658;2024-01-25T00:39:15;9.00;99.90
35111;DHT22;21290;50.158;8.658;2024-01-25T00:41:44;8.90;99.90
35111;DHT22;21290;50.158;8.658;2024-01-25T00:44:13;8.90;99.90
35111;DHT22;21290;50.158;8.658;2024-01-25T00:46:40;8.90;99.90
35111;DHT22;21290;50.158;8.658;2024-01-25T00:49:06;8.90;99.90
35111;DHT22;21290;50.158;8.658;2024-01-25T00:51:33;9.00;99.90
35111;DHT22;21290;50.158;8.658;2024-01-25T00:54:00;8.90;99.90
35111;DHT22;21290;50.158;8.658;2024-01-25T00:56:28;8.90;99.90
35111;DHT22;21290;50.158;8.658;2024-01-25T00:58:54;9.00;99.90
35111;DHT22;21290;50.158;8.658;2024-01-25T01:01:22;9.00;99.90
35111;DHT22;21290;50.158;8.658;2024-01-25T01:03:50;9.00;99.90
35111;DHT22;21290;50.158;8.658;2024-01-25T01:06:20;9.00;99.90
35111;DHT22;21290;50.158;8.658;2024-01-25T01:08:47;9.00;99.90
35111;DHT22;21290;50.158;8.658;2024-01-25T01:11:14;8.90;99.90
35111;DHT22;21290;50.158;8.658;2024-01-25T01:13:40;8.90;99.90
35111;DHT22;21290;50.158;8.658;2024-01-25T01:16:07;9.00;99.90
35111;DHT22;21290;50.158;8.658;2024-01-25T01:18:34;9.00;99.90
35111;DHT22;21290;50.158;8.658;2024-01-25T01:21:01;9.00;99.90
35111;DHT22;21290;50.158;8.658;2024-01-25T01:23:27;9.00;99.90
35111;DHT22;21290;50.158;8.658;2024-01-25T01:25:54;9.00;99.90
35111;DHT22;21290;50.158;8.658;2024-01-25T01:28:20;8.90;99.90
35111;DHT22;21290;50.158;8.658;2024-01-25T01:30:47;8.90;99.90
35111;DHT22;21290;50.158;8.658;2024-01-25T01:33:14;8.90;99.90
35111;DHT22;21290;50.158;8.658;2024-01-25T01:35:41;8.90;99.90
35111;DHT22;21290;50.158;8.658;2024-01-25T01:38:07;8.90;99.90
35111;DHT22;21290;50.158;8.658;2024-01-25T01:40:34;8.90;99.90
35111;DHT22;21290;50.158;8.658;2024-01-25T01:43:01;8.90;99.90
35111;DHT22;21290;50.158;8.658;2024-01-25T01:45:29;8.80;99.90
35111;DHT22;21290;50.158;8.658;2024-01-25T01:47:56;8.80;99.90
35111;DHT22;21290;50.158;8.658;2024-01-25T01:50:24;8.80;99.90
35111;DHT22;21290;50.158;8.658;2024-01-25T01:52:51;8.80;99.90
35111;DHT22;21290;50.158;8.658;2024-01-25T01:55:19;8.70;99.90
35111;DHT22;21290;50.158;8.658;2024-01-25T01:57:46;8.70;99.90
35111;DHT22;21290;50.158;8.658;2024-01-25T02:00:15;8.70;99.90
35111;DHT22;21290;50.158;8.658;2024-01-25T02:02:43;8.70;99.90
35111;DHT22;21290;50.158;8.658;2024-01-25T02:05:10;8.70;99.90
35111;DHT22;21290;50.158;8.658;2024-01-25T02:07:37;8.70;99.90
35111;DHT22;21290;50.158;8.658;2024-01-25T02:10:05;8.70;99.90
35111;DHT22;21290;50.158;8.658;2024-01-25T02:12:32;8.70;99.90
35111;DHT22;21290;50.158;8.658;2024-01-25T02:14:59;8.70;99.90
35111;DHT22;21290;50.158;8.658;2024-01-25T02:17:25;8.60;99.90
35111;DHT22;21290;50.158;8.658;2024-01-25T02:19:52;8.50;99.90
35111;DHT22;21290;50.158;8.658;2024-01-25T02:22:19;8.40;99.90
35111;DHT22;21290;50.158;8.658;2024-01-25T02:27:54;8.20;99.90
35111;DHT22;21290;50.158;8.658;2024-01-25T02:30:21;8.10;99.90
35111;DHT22;21290;50.158;8.658;2024-01-25T02:32:48;8.00;99.90
35111;DHT22;21290;50.158;8.658;2024-01-25T02:35:15;7.90;99.90
35111;DHT22;21290;50.158;8.658;2024-01-25T02:37:42;7.90;99.90
35111;DHT22;21290;50.158;8.658;2024-01-25T02:40:09;7.90;99.90
35111;DHT22;21290;50.158;8.658;2024-01-25T02:42:36;7.90;99.90
35111;DHT22;21290;50.158;8.658;2024-01-25T02:45:03;8.00;99.90
35111;DHT22;21290;50.158;8.658;2024-01-25T02:47:30;8.00;99.90
35111;DHT22;21290;50.158;8.658;2024-01-25T02:49:57;8.10;99.90
35111;DHT22;21290;50.158;8.658;2024-01-25T02:52:24;8.10;99.90
35111;DHT22;21290;50.158;8.658;2024-01-25T02:54:51;8.10;99.90
35111;DHT22;21290;50.158;8.658;2024-01-25T02:57:18;8.10;99.90
35111;DHT22;21290;50.158;8.658;2024-01-25T02:59:44;8.20;99.90
35111;DHT22;21290;50.158;8.658;2024-01-25T03:02:11;8.20;99.90
35111;DHT22;21290;50.158;8.658;2024-01-25T03:04:38;8.20;99.90
35111;DHT22;21290;50.158;8.658;2024-01-25T03:07:05;8.20;99.90
35111;DHT22;21290;50.158;8.658;2024-01-25T03:09:31;8.20;99.90
35111;DHT22;21290;50.158;8.658;2024-01-25T03:11:58;8.10;99.90
35111;DHT22;21290;50.158;8.658;2024-01-25T03:14:25;8.10;99.90
35111;DHT22;21290;50.158;8.658;2024-01-25T03:16:52;8.10;99.90
35111;DHT22;21290;50.158;8.658;2024-01-25T03:19:18;8.10;99.90
35111;DHT22;21290;50.158;8.658;2024-01-25T03:21:45;8.10;99.90
35111;DHT22;21290;50.158;8.658;2024-01-25T03:24:12;8.20;99.90
35111;DHT22;21290;50.158;8.658;2024-01-25T03:26:38;8.20;99.90
35111;DHT22;21290;50.158;8.658;2024-01-25T03:29:05;8.10;99.90
35111;DHT22;21290;50.158;8.658;2024-01-25T03:31:32;8.10;99.90
35111;DHT22;21290;50.158;8.658;2024-01-25T03:33:59;8.10;99.90
35111;DHT22;21290;50.158;8.658;2024-01-25T03:36:26;8.10;99.90
35111;DHT22;21290;50.158;8.658;2024-01-25T03:38:52;8.10;99.90
35111;DHT22;21290;50.158;8.658;2024-01-25T03:41:20;8.10;99.90
35111;DHT22;21290;50.158;8.658;2024-01-25T03:43:47;8.00;99.90
35111;DHT22;21290;50.158;8.658;2024-01-25T03:46:13;8.00;99.90
35111;DHT22;21290;50.158;8.658;2024-01-25T03:48:40;8.00;99.90
35111;DHT22;21290;50.158;8.658;2024-01-25T03:51:07;8.00;99.90
35111;DHT22;21290;50.158;8.658;2024-01-25T03:53:34;7.90;99.90
35111;DHT22;21290;50.158;8.658;2024-01-25T03:56:01;7.90;99.90
35111;DHT22;21290;50.158;8.658;2024-01-25T03:58:28;7.80;99.90
35111;DHT22;21290;50.158;8.658;2024-01-25T04:00:55;7.90;99.90
35111;DHT22;21290;50.158;8.658;2024-01-25T04:03:22;7.90;99.90
35111;DHT22;21290;50.158;8.658;2024-01-25T04:05:48;7.90;99.90
35111;DHT22;21290;50.158;8.658;2024-01-25T04:08:16;7.80;99.90
35111;DHT22;21290;50.158;8.658;2024-01-25T04:10:42;7.80;99.90
35111;DHT22;21290;50.158;8.658;2024-01-25T04:13:09;7.80;99.90
35111;DHT22;21290;50.158;8.658;2024-01-25T04:15:36;7.80;99.90
35111;DHT22;21290;50.158;8.658;2024-01-25T04:18:02;7.70;99.90
35111;DHT22;21290;50.158;8.658;2024-01-25T04:20:30;7.70;99.90
35111;DHT22;21290;50.158;8.658;2024-01-25T04:22:58;7.60;99.90
35111;DHT22;21290;50.158;8.658;2024-01-25T04:25:24;7.70;99.90
35111;DHT22;21290;50.158;8.658;2024-01-25T04:27:51;7.70;99.90
35111;DHT22;21290;50.158;8.658;2024-01-25T04:30:18;7.70;99.90
35111;DHT22;21290;50.158;8.658;2024-01-25T04:32:45;7.70;99.90
35111;DHT22;21290;50.158;8.658;2024-01-25T04:35:11;7.70;99.90
35111;DHT22;21290;50.158;8.658;2024-01-25T04:37:38;7.70;99.90
35111;DHT22;21290;50.158;8.658;2024-01-25T04:40:06;7.60;99.90
35111;DHT22;21290;50.158;8.658;2024-01-25T04:42:33;7.60;99.90
35111;DHT22;21290;50.158;8.658;2024-01-25T04:44:59;7.60;99.90
35111;DHT22;21290;50.158;8.658;2024-01-25T04:47:26;7.50;99.90
35111;DHT22;21290;50.158;8.658;2024-01-25T04:49:52;7.50;99.90
35111;DHT22;21290;50.158;8.658;2024-01-25T04:52:19;7.50;99.90
35111;DHT22;21290;50.158;8.658;2024-01-25T04:54:46;7.50;99.90
35111;DHT22;21290;50.158;8.658;2024-01-25T04:57:13;7.50;99.90
35111;DHT22;21290;50.158;8.658;2024-01-25T04:59:39;7.50;99.90
35111;DHT22;21290;50.158;8.658;2024-01-25T05:02:06;7.50;99.90
35111;DHT22;21290;50.158;8.658;2024-01-25T05:04:33;7.50;99.90
35111;DHT22;21290;50.158;8.658;2024-01-25T05:07:01;7.60;99.90
35111;DHT22;21290;50.158;8.658;2024-01-25T05:09:28;7.70;99.90
35111;DHT22;21290;50.158;8.658;2024-01-25T05:11:55;7.80;99.90
35111;DHT22;21290;50.158;8.658;2024-01-25T05:14:25;7.80;99.90
35111;DHT22;21290;50.158;8.658;2024-01-25T05:16:52;7.80;99.90
35111;DHT22;21290;50.158;8.658;2024-01-25T05:19:18;7.80;99.90
35111;DHT22;21290;50.158;8.658;2024-01-25T05:21:45;7.80;99.90
35111;DHT22;21290;50.158;8.658;2024-01-25T05:24:13;7.70;99.90
35111;DHT22;21290;50.158;8.658;2024-01-25T05:26:39;7.70;99.90
35111;DHT22;21290;50.158;8.658;2024-01-25T05:29:06;7.60;99.90
35111;DHT22;21290;50.158;8.658;2024-01-25T05:31:32;7.60;99.90
35111;DHT22;21290;50.158;8.658;2024-01-25T05:33:59;7.60;99.90
35111;DHT22;21290;50.158;8.658;2024-01-25T05:36:26;7.60;99.90
35111;DHT22;21290;50.158;8.658;2024-01-25T05:38:53;7.60;99.90
35111;DHT22;21290;50.158;8.658;2024-01-25T05:41:19;7.60;99.90
35111;DHT22;21290;50.158;8.658;2024-01-25T05:43:46;7.50;99.90
35111;DHT22;21290;50.158;8.658;2024-01-25T05:46:13;7.50;99.90
35111;DHT22;21290;50.158;8.658;2024-01-25T05:48:39;7.50;99.90
35111;DHT22;21290;50.158;8.658;2024-01-25T05:51:06;7.60;99.90
35111;DHT22;21290;50.158;8.658;2024-01-25T05:53:33;7.60;99.90
35111;DHT22;21290;50.158;8.658;2024-01-25T05:56:00;7.70;99.90
35111;DHT22;21290;50.158;8.658;2024-01-25T05:58:26;7.70;99.90
35111;DHT22;21290;50.158;8.658;2024-01-25T06:00:53;7.70;99.90
35111;DHT22;21290;50.158;8.658;2024-01-25T06:03:20;7.70;99.90
35111;DHT22;21290;50.158;8.658;2024-01-25T06:05:47;7.70;99.90
35111;DHT22;21290;50.158;8.658;2024-01-25T06:08:14;7.60;99.90
35111;DHT22;21290;50.158;8.658;2024-01-25T06:10:40;7.60;99.90
35111;DHT22;21290;50.158;8.658;2024-01-25T06:13:07;7.50;99.90
35111;DHT22;21290;50.158;8.658;2024-01-25T06:15:34;7.50;99.90
35111;DHT22;21290;50.158;8.658;2024-01-25T06:18:01;7.50;99.90
35111;DHT22;21290;50.158;8.658;2024-01-25T06:20:27;7.40;99.90
35111;DHT22;21290;50.158;8.658;2024-01-25T06:22:54;7.40;99.90
35111;DHT22;21290;50.158;8.658;2024-01-25T06:25:21;7.40;99.90
35111;DHT22;21290;50.158;8.658;2024-01-25T06:27:48;7.40;99.90
35111;DHT22;21290;50.158;8.658;2024-01-25T06:30:15;7.40;99.90
35111;DHT22;21290;50.158;8.658;2024-01-25T06:32:42;7.40;99.90
35111;DHT22;21290;50.158;8.658;2024-01-25T06:35:09;7.40;99.90
35111;DHT22;21290;50.158;8.658;2024-01-25T06:37:36;7.30;99.90
35111;DHT22;21290;50.158;8.658;2024-01-25T06:40:03;7.30;99.90
35111;DHT22;21290;50.158;8.658;2024-01-25T06:42:31;7.20;99.90
35111;DHT22;21290;50.158;8.658;2024-01-25T06:44:58;7.20;99.90
35111;DHT22;21290;50.158;8.658;2024-01-25T06:47:24;7.10;99.90
35111;DHT22;21290;50.158;8.658;2024-01-25T06:49:51;7.10;99.90
35111;DHT22;21290;50.158;8.658;2024-01-25T06:52:18;7.10;99.90
35111;DHT22;21290;50.158;8.658;2024-01-25T06:54:46;7.10;99.90
35111;DHT22;21290;50.158;8.658;2024-01-25T06:57:13;7.10;99.90
35111;DHT22;21290;50.158;8.658;2024-01-25T06:59:43;7.00;99.90
35111;DHT22;21290;50.158;8.658;2024-01-25T07:02:10;7.00;99.90
35111;DHT22;21290;50.158;8.658;2024-01-25T07:04:39;7.00;99.90
35111;DHT22;21290;50.158;8.658;2024-01-25T07:07:08;6.90;99.90
35111;DHT22;21290;50.158;8.658;2024-01-25T07:09:35;6.90;99.90
35111;DHT22;21290;50.158;8.658;2024-01-25T07:12:02;6.90;99.90
35111;DHT22;21290;50.158;8.658;2024-01-25T07:14:29;6.80;99.90
35111;DHT22;21290;50.158;8.658;2024-01-25T07:16:55;6.80;99.90
35111;DHT22;21290;50.158;8.658;2024-01-25T07:19:22;6.80;99.90
35111;DHT22;21290;50.158;8.658;2024-01-25T07:21:49;6.80;99.90
35111;DHT22;21290;50.158;8.658;2024-01-25T07:24:16;6.70;99.90
35111;DHT22;21290;50.158;8.658;2024-01-25T07:26:42;6.80;99.90
35111;DHT22;21290;50.158;8.658;2024-01-25T07:29:09;6.80;99.90
35111;DHT22;21290;50.158;8.658;2024-01-25T07:31:36;6.80;99.90
35111;DHT22;21290;50.158;8.658;2024-01-25T07:34:02;6.80;99.90
35111;DHT22;21290;50.158;8.658;2024-01-25T07:36:30;6.90;99.90
35111;DHT22;21290;50.158;8.658;2024-01-25T07:38:57;7.00;99.90
35111;DHT22;21290;50.158;8.658;2024-01-25T07:41:23;7.00;99.90
35111;DHT22;21290;50.158;8.658;2024-01-25T07:43:50;7.00;99.90
35111;DHT22;21290;50.158;8.658;2024-01-25T07:46:22;7.00;99.90
35111;DHT22;21290;50.158;8.658;2024-01-25T07:48:50;7.00;99.90
35111;DHT22;21290;50.158;8.658;2024-01-25T07:51:17;7.00;99.90
35111;DHT22;21290;50.158;8.658;2024-01-25T07:53:44;7.00;99.90
35111;DHT22;21290;50.158;8.658;2024-01-25T07:56:10;7.00;99.90
35111;DHT22;21290;50.158;8.658;2024-01-25T07:58:38;7.00;99.90
35111;DHT22;21290;50.158;8.658;2024-01-25T08:01:05;7.10;99.90
35111;DHT22;21290;50.158;8.658;2024-01-25T08:03:36;7.20;99.90
35111;DHT22;21290;50.158;8.658;2024-01-25T08:06:04;7.40;99.90
35111;DHT22;21290;50.158;8.658;2024-01-25T08:08:31;7.50;99.90
35111;DHT22;21290;50.158;8.658;2024-01-25T08:10:57;7.60;99.90
35111;DHT22;21290;50.158;8.658;2024-01-25T08:13:24;7.70;99.90
35111;DHT22;21290;50.158;8.658;2024-01-25T08:15:51;7.90;99.90
35111;DHT22;21290;50.158;8.658;2024-01-25T08:18:18;8.00;99.90
35111;DHT22;21290;50.158;8.658;2024-01-25T08:20:46;8.10;99.90
35111;DHT22;21290;50.158;8.658;2024-01-25T08:23:13;8.20;99.90
35111;DHT22;21290;50.158;8.658;2024-01-25T08:25:41;8.30;99.90
35111;DHT22;21290;50.158;8.658;2024-01-25T08:28:07;8.30;99.90
35111;DHT22;21290;50.158;8.658;2024-01-25T08:30:34;8.40;99.90
35111;DHT22;21290;50.158;8.658;2024-01-25T08:33:01;8.60;99.90
35111;DHT22;21290;50.158;8.658;2024-01-25T08:35:28;8.70;99.90
35111;DHT22;21290;50.158;8.658;2024-01-25T08:37:57;9.00;99.90
35111;DHT22;21290;50.158;8.658;2024-01-25T08:40:23;9.30;99.90
35111;DHT22;21290;50.158;8.658;2024-01-25T08:42:53;9.50;99.90
35111;DHT22;21290;50.158;8.658;2024-01-25T08:45:19;9.70;99.90
35111;DHT22;21290;50.158;8.658;2024-01-25T08:47:46;9.90;99.90
35111;DHT22;21290;50.158;8.658;2024-01-25T08:50:13;10.10;99.90
35111;DHT22;21290;50.158;8.658;2024-01-25T08:52:40;10.60;99.90
35111;DHT22;21290;50.158;8.658;2024-01-25T08:55:07;11.00;99.90
35111;DHT22;21290;50.158;8.658;2024-01-25T08:57:36;11.30;99.90
35111;DHT22;21290;50.158;8.658;2024-01-25T09:00:03;11.90;99.90
35111;DHT22;21290;50.158;8.658;2024-01-25T09:02:37;12.80;99.90
35111;DHT22;21290;50.158;8.658;2024-01-25T09:05:05;13.80;99.90
35111;DHT22;21290;50.158;8.658;2024-01-25T09:07:32;14.60;99.90
35111;DHT22;21290;50.158;8.658;2024-01-25T09:09:59;14.90;99.90
35111;DHT22;21290;50.158;8.658;2024-01-25T09:12:26;15.30;99.90
35111;DHT22;21290;50.158;8.658;2024-01-25T09:14:52;15.60;99.90
35111;DHT22;21290;50.158;8.658;2024-01-25T09:17:19;15.40;99.90
35111;DHT22;21290;50.158;8.658;2024-01-25T09:19:49;14.90;99.90
35111;DHT22;21290;50.158;8.658;2024-01-25T09:22:20;14.40;99.90
35111;DHT22;21290;50.158;8.658;2024-01-25T09:24:47;14.30;99.90
35111;DHT22;21290;50.158;8.658;2024-01-25T09:27:14;14.20;99.90
35111;DHT22;21290;50.158;8.658;2024-01-25T09:29:42;14.10;99.90
35111;DHT22;21290;50.158;8.658;2024-01-25T09:32:09;13.90;99.90
35111;DHT22;21290;50.158;8.658;2024-01-25T09:34:37;13.70;99.90
35111;DHT22;21290;50.158;8.658;2024-01-25T09:37:06;13.40;99.90
35111;DHT22;21290;50.158;8.658;2024-01-25T09:39:34;13.30;99.90
35111;DHT22;21290;50.158;8.658;2024-01-25T09:42:05;13.10;99.90
35111;DHT22;21290;50.158;8.658;2024-01-25T09:44:34;12.80;99.90
35111;DHT22;21290;50.158;8.658;2024-01-25T09:47:03;12.50;99.90
35111;DHT22;21290;50.158;8.658;2024-01-25T09:49:32;12.20;99.90
35111;DHT22;21290;50.158;8.658;2024-01-25T09:52:03;12.10;99.90
35111;DHT22;21290;50.158;8.658;2024-01-25T09:54:34;12.00;99.90
35111;DHT22;21290;50.158;8.658;2024-01-25T09:57:14;11.90;99.90
35111;DHT22;21290;50.158;8.658;2024-01-25T09:59:45;11.80;99.90
35111;DHT22;21290;50.158;8.658;2024-01-25T10:02:12;11.80;99.90
35111;DHT22;21290;50.158;8.658;2024-01-25T10:04:39;11.80;99.90
35111;DHT22;21290;50.158;8.658;2024-01-25T10:07:06;11.80;99.90
35111;DHT22;21290;50.158;8.658;2024-01-25T10:09:41;11.70;99.90
35111;DHT22;21290;50.158;8.658;2024-01-25T10:12:08;11.70;99.90
35111;DHT22;21290;50.158;8.658;2024-01-25T10:14:44;11.60;99.90
35111;DHT22;21290;50.158;8.658;2024-01-25T10:17:11;11.60;99.90
35111;DHT22;21290;50.158;8.658;2024-01-25T10:19:42;11.60;99.90
35111;DHT22;21290;50.158;8.658;2024-01-25T10:22:09;11.50;99.90
35111;DHT22;21290;50.158;8.658;2024-01-25T10:24:40;11.50;99.90
35111;DHT22;21290;50.158;8.658;2024-01-25T10:27:10;11.40;99.90
35111;DHT22;21290;50.158;8.658;2024-01-25T10:29:37;11.50;99.90
35111;DHT22;21290;50.158;8.658;2024-01-25T10:32:04;11.60;99.90
35111;DHT22;21290;50.158;8.658;2024-01-25T10:34:32;11.70;99.90
35111;DHT22;21290;50.158;8.658;2024-01-25T10:37:01;11.90;99.90
35111;DHT22;21290;50.158;8.658;2024-01-25T10:39:29;11.80;99.90
35111;DHT22;21290;50.158;8.658;2024-01-25T10:41:56;11.80;99.90
35111;DHT22;21290;50.158;8.658;2024-01-25T10:44:25;11.60;99.90
35111;DHT22;21290;50.158;8.658;2024-01-25T10:46:52;11.60;99.90
35111;DHT22;21290;50.158;8.658;2024-01-25T10:49:20;11.50;99.90
35111;DHT22;21290;50.158;8.658;2024-01-25T10:51:48;11.50;99.90
35111;DHT22;21290;50.158;8.658;2024-01-25T10:54:16;11.50;99.90
35111;DHT22;21290;50.158;8.658;2024-01-25T10:56:46;11.40;99.90
35111;DHT22;21290;50.158;8.658;2024-01-25T10:59:13;11.50;99.90
35111;DHT22;21290;50.158;8.658;2024-01-25T11:01:45;11.50;99.90
35111;DHT22;21290;50.158;8.658;2024-01-25T11:04:15;11.50;99.90
35111;DHT22;21290;50.158;8.658;2024-01-25T11:06:45;11.70;99.90
35111;DHT22;21290;50.158;8.658;2024-01-25T11:09:18;12.00;99.90
35111;DHT22;21290;50.158;8.658;2024-01-25T11:11:49;12.30;99.90
35111;DHT22;21290;50.158;8.658;2024-01-25T11:14:16;12.30;99.90
35111;DHT22;21290;50.158;8.658;2024-01-25T11:16:44;12.40;99.90
35111;DHT22;21290;50.158;8.658;2024-01-25T11:19:18;12.60;99.90
35111;DHT22;21290;50.158;8.658;2024-01-25T11:21:50;12.70;99.90
35111;DHT22;21290;50.158;8.658;2024-01-25T11:24:22;13.00;99.90
35111;DHT22;21290;50.158;8.658;2024-01-25T11:26:49;12.80;99.90
35111;DHT22;21290;50.158;8.658;2024-01-25T11:29:18;12.60;99.90
35111;DHT22;21290;50.158;8.658;2024-01-25T11:31:45;12.30;99.90
35111;DHT22;21290;50.158;8.658;2024-01-25T11:34:13;12.20;99.90
35111;DHT22;21290;50.158;8.658;2024-01-25T11:36:40;12.00;99.90
35111;DHT22;21290;50.158;8.658;2024-01-25T11:39:09;11.70;99.90
35111;DHT22;21290;50.158;8.658;2024-01-25T11:41:36;11.40;99.90
35111;DHT22;21290;50.158;8.658;2024-01-25T11:44:03;11.40;99.90
35111;DHT22;21290;50.158;8.658;2024-01-25T11:46:32;11.50;99.90
35111;DHT22;21290;50.158;8.658;2024-01-25T11:49:04;11.50;99.90
35111;DHT22;21290;50.158;8.658;2024-01-25T11:51:31;11.60;99.90
35111;DHT22;21290;50.158;8.658;2024-01-25T11:53:58;11.80;99.90
35111;DHT22;21290;50.158;8.658;2024-01-25T11:56:29;11.90;99.90
35111;DHT22;21290;50.158;8.658;2024-01-25T11:58:57;11.90;99.90
35111;DHT22;21290;50.158;8.658;2024-01-25T12:01:25;11.90;99.90
35111;DHT22;21290;50.158;8.658;2024-01-25T12:03:52;11.90;99.90
35111;DHT22;21290;50.158;8.658;2024-01-25T12:06:20;11.80;99.90
35111;DHT22;21290;50.158;8.658;2024-01-25T12:08:47;11.90;99.90
35111;DHT22;21290;50.158;8.658;2024-01-25T12:11:18;12.00;99.90
35111;DHT22;21290;50.158;8.658;2024-01-25T12:13:45;12.10;99.90
35111;DHT22;21290;50.158;8.658;2024-01-25T12:16:12;12.10;99.90
35111;DHT22;21290;50.158;8.658;2024-01-25T12:18:42;12.10;99.90
35111;DHT22;21290;50.158;8.658;2024-01-25T12:21:09;12.10;99.90
35111;DHT22;21290;50.158;8.658;2024-01-25T12:23:37;12.00;99.90
35111;DHT22;21290;50.158;8.658;2024-01-25T12:26:06;12.00;99.90
35111;DHT22;21290;50.158;8.658;2024-01-25T12:28:34;12.10;99.90
35111;DHT22;21290;50.158;8.658;2024-01-25T12:31:03;12.00;99.90
35111;DHT22;21290;50.158;8.658;2024-01-25T12:33:30;12.00;99.90
35111;DHT22;21290;50.158;8.658;2024-01-25T12:35:58;12.10;99.90
35111;DHT22;21290;50.158;8.658;2024-01-25T12:38:28;12.20;99.90
35111;DHT22;21290;50.158;8.658;2024-01-25T12:40:56;12.20;99.90
35111;DHT22;21290;50.158;8.658;2024-01-25T12:43:22;12.20;99.90
35111;DHT22;21290;50.158;8.658;2024-01-25T12:45:49;12.20;99.90
35111;DHT22;21290;50.158;8.658;2024-01-25T12:48:18;12.10;99.90
35111;DHT22;21290;50.158;8.658;2024-01-25T12:50:45;12.20;99.90
35111;DHT22;21290;50.158;8.658;2024-01-25T12:53:12;12.10;99.90
35111;DHT22;21290;50.158;8.658;2024-01-25T12:55:40;12.20;99.90
35111;DHT22;21290;50.158;8.658;2024-01-25T12:58:07;12.20;99.90
35111;DHT22;21290;50.158;8.658;2024-01-25T13:00:34;12.30;99.90
35111;DHT22;21290;50.158;8.658;2024-01-25T13:03:01;12.20;99.90
35111;DHT22;21290;50.158;8.658;2024-01-25T13:05:28;12.30;99.90
35111;DHT22;21290;50.158;8.658;2024-01-25T13:07:55;12.40;99.90
35111;DHT22;21290;50.158;8.658;2024-01-25T13:10:22;12.40;99.90
35111;DHT22;21290;50.158;8.658;2024-01-25T13:12:49;12.40;99.90
35111;DHT22;21290;50.158;8.658;2024-01-25T13:15:17;12.60;99.90
35111;DHT22;21290;50.158;8.658;2024-01-25T13:17:44;12.60;99.90
35111;DHT22;21290;50.158;8.658;2024-01-25T13:20:11;12.70;99.90
35111;DHT22;21290;50.158;8.658;2024-01-25T13:22:38;12.70;99.90
35111;DHT22;21290;50.158;8.658;2024-01-25T13:25:05;12.70;99.90
35111;DHT22;21290;50.158;8.658;2024-01-25T13:27:32;12.60;99.90
35111;DHT22;21290;50.158;8.658;2024-01-25T13:29:59;12.60;99.90
35111;DHT22;21290;50.158;8.658;2024-01-25T13:32:25;12.40;99.90
35111;DHT22;21290;50.158;8.658;2024-01-25T13:34:52;12.30;99.90
35111;DHT22;21290;50.158;8.658;2024-01-25T13:37:19;12.10;99.90
35111;DHT22;21290;50.158;8.658;2024-01-25T13:39:45;12.00;99.90
35111;DHT22;21290;50.158;8.658;2024-01-25T13:42:12;11.90;99.90
35111;DHT22;21290;50.158;8.658;2024-01-25T13:44:39;11.80;99.90
35111;DHT22;21290;50.158;8.658;2024-01-25T13:47:06;11.60;99.90
35111;DHT22;21290;50.158;8.658;2024-01-25T13:49:33;11.50;99.90
35111;DHT22;21290;50.158;8.658;2024-01-25T13:52:01;11.50;99.90
35111;DHT22;21290;50.158;8.658;2024-01-25T13:54:31;11.50;99.90
35111;DHT22;21290;50.158;8.658;2024-01-25T13:56:58;11.50;99.90
35111;DHT22;21290;50.158;8.658;2024-01-25T13:59:25;11.50;99.90
35111;DHT22;21290;50.158;8.658;2024-01-25T14:01:52;11.50;99.90
35111;DHT22;21290;50.158;8.658;2024-01-25T14:04:19;11.50;99.90
35111;DHT22;21290;50.158;8.658;2024-01-25T14:06:46;11.40;99.90
35111;DHT22;21290;50.158;8.658;2024-01-25T14:09:12;11.20;99.90
35111;DHT22;21290;50.158;8.658;2024-01-25T14:11:39;11.30;99.90
35111;DHT22;21290;50.158;8.658;2024-01-25T14:14:06;11.30;99.90
35111;DHT22;21290;50.158;8.658;2024-01-25T14:16:33;11.30;99.90
35111;DHT22;21290;50.158;8.658;2024-01-25T14:19:00;11.30;99.90
35111;DHT22;21290;50.158;8.658;2024-01-25T14:21:33;11.20;99.90
35111;DHT22;21290;50.158;8.658;2024-01-25T14:24:00;11.20;99.90
35111;DHT22;21290;50.158;8.658;2024-01-25T14:26:26;11.10;99.90
35111;DHT22;21290;50.158;8.658;2024-01-25T14:28:53;11.20;99.90
35111;DHT22;21290;50.158;8.658;2024-01-25T14:31:20;11.20;99.90
35111;DHT22;21290;50.158;8.658;2024-01-25T14:33:46;11.20;99.90
35111;DHT22;21290;50.158;8.658;2024-01-25T14:36:13;11.20;99.90
35111;DHT22;21290;50.158;8.658;2024-01-25T14:38:41;11.20;99.90
35111;DHT22;21290;50.158;8.658;2024-01-25T14:41:09;11.20;99.90
35111;DHT22;21290;50.158;8.658;2024-01-25T14:43:37;11.10;99.90
35111;DHT22;21290;50.158;8.658;2024-01-25T14:46:06;11.10;99.90
35111;DHT22;21290;50.158;8.658;2024-01-25T14:48:33;11.00;99.90
35111;DHT22;21290;50.158;8.658;2024-01-25T14:51:00;11.00;99.90
35111;DHT22;21290;50.158;8.658;2024-01-25T14:53:27;11.00;99.90
35111;DHT22;21290;50.158;8.658;2024-01-25T14:55:54;10.90;99.90
35111;DHT22;21290;50.158;8.658;2024-01-25T14:58:20;10.80;99.90
35111;DHT22;21290;50.158;8.658;2024-01-25T15:00:50;10.70;99.90
35111;DHT22;21290;50.158;8.658;2024-01-25T15:03:18;10.60;99.90
35111;DHT22;21290;50.158;8.658;2024-01-25T15:05:45;10.60;99.90
35111;DHT22;21290;50.158;8.658;2024-01-25T15:08:12;10.50;99.90
35111;DHT22;21290;50.158;8.658;2024-01-25T15:10:39;10.50;99.90
35111;DHT22;21290;50.158;8.658;2024-01-25T15:13:05;10.40;99.90
35111;DHT22;21290;50.158;8.658;2024-01-25T15:15:32;10.40;99.90
35111;DHT22;21290;50.158;8.658;2024-01-25T15:17:59;10.30;99.90
35111;DHT22;21290;50.158;8.658;2024-01-25T15:20:26;10.30;99.90
35111;DHT22;21290;50.158;8.658;2024-01-25T15:22:54;10.20;99.90
35111;DHT22;21290;50.158;8.658;2024-01-25T15:25:24;10.20;99.90
35111;DHT22;21290;50.158;8.658;2024-01-25T15:27:51;10.10;99.90
35111;DHT22;21290;50.158;8.658;2024-01-25T15:30:18;10.00;99.90
35111;DHT22;21290;50.158;8.658;2024-01-25T15:32:45;10.00;99.90
35111;DHT22;21290;50.158;8.658;2024-01-25T15:35:15;10.00;99.90
35111;DHT22;21290;50.158;8.658;2024-01-25T15:37:42;9.90;99.90
35111;DHT22;21290;50.158;8.658;2024-01-25T15:40:09;9.90;99.90
35111;DHT22;21290;50.158;8.658;2024-01-25T15:42:42;9.90;99.90